Time;durP1;ratioP1;P1;durP2;ratioP2;P2;SDS_P1;SDS_P2;PMS_P1;PMS_P2;Temp;Humidity;BMP_temperature;BMP_pressure;BME280_temperature;BME280_humidity;BME280_pressure;Samples;Min_cycle;Max_cycle;Signal;HPM_P1;HPM_P2
2022/07/28 00:00:46;;;;;;;1.20;0.82;;;11.40;99.90;;;;;;5088154;28;20513;-63
2022/07/28 00:03:11;;;;;;;2.92;1.02;;;11.40;99.90;;;;;;5068938;28;20043;-64
2022/07/28 00:05:37;;;;;;;2.90;1.08;;;11.30;99.90;;;;;;5083666;28;20462;-65
2022/07/28 00:08:04;;;;;;;2.13;1.15;;;11.30;99.90;;;;;;5071526;28;20119;-63
2022/07/28 00:10:31;;;;;;;1.98;0.98;;;11.30;99.90;;;;;;5067182;28;20035;-65
2022/07/28 00:12:58;;;;;;;2.10;1.00;;;11.30;99.90;;;;;;5078632;28;21574;-64
2022/07/28 00:15:24;;;;;;;4.82;1.10;;;11.30;99.90;;;;;;5072892;28;20479;-64
2022/07/28 00:17:50;;;;;;;1.67;0.90;;;11.30;99.90;;;;;;5070963;28;20075;-63
2022/07/28 00:20:15;;;;;;;1.50;0.75;;;11.30;99.90;;;;;;5068173;28;20059;-64
2022/07/28 00:22:42;;;;;;;3.13;1.10;;;11.30;99.90;;;;;;5092157;28;20072;-64
2022/07/28 00:25:09;;;;;;;2.28;0.80;;;11.30;99.90;;;;;;5060581;28;20105;-63
2022/07/28 00:27:35;;;;;;;2.70;1.10;;;11.20;99.90;;;;;;5072964;28;20048;-64
2022/07/28 00:30:01;;;;;;;2.53;1.00;;;11.20;99.90;;;;;;5086008;28;20028;-65
2022/07/28 00:32:26;;;;;;;1.35;0.90;;;11.20;99.90;;;;;;5086454;28;20035;-64
2022/07/28 00:34:52;;;;;;;2.03;1.08;;;11.20;99.90;;;;;;5070888;28;20051;-64
2022/07/28 00:37:17;;;;;;;3.03;1.15;;;11.20;99.90;;;;;;5090261;28;20040;-64
2022/07/28 00:39:43;;;;;;;1.77;0.90;;;11.20;99.90;;;;;;5087301;28;20040;-65
2022/07/28 00:42:11;;;;;;;2.38;0.90;;;11.10;99.90;;;;;;5075266;28;20201;-64
2022/07/28 00:44:40;;;;;;;3.92;1.00;;;11.10;99.90;;;;;;5070684;28;20046;-65
2022/07/28 00:47:06;;;;;;;2.30;0.82;;;11.10;99.90;;;;;;5070356;28;20040;-64
2022/07/28 00:49:32;;;;;;;3.03;1.10;;;11.00;99.90;;;;;;5070904;28;20032;-66
2022/07/28 00:51:57;;;;;;;1.90;1.00;;;11.00;99.90;;;;;;5071303;28;20043;-64
2022/07/28 00:54:23;;;;;;;2.08;1.27;;;11.00;99.90;;;;;;5054416;28;20102;-65
2022/07/28 00:56:49;;;;;;;2.67;1.10;;;11.00;99.90;;;;;;5089312;28;20114;-64
2022/07/28 00:59:14;;;;;;;2.10;1.00;;;11.00;99.90;;;;;;5072279;28;20036;-66
2022/07/28 01:01:40;;;;;;;1.92;0.95;;;10.90;99.90;;;;;;5078260;28;20028;-64
2022/07/28 01:04:06;;;;;;;1.00;0.90;;;10.90;99.90;;;;;;5086518;28;20546;-64
2022/07/28 01:06:58;;;;;;;1.42;0.88;;;10.90;99.90;;;;;;5075323;28;20047;-64
2022/07/28 01:09:39;;;;;;;3.05;1.00;;;10.80;99.90;;;;;;5038100;28;20077;-64
2022/07/28 01:12:31;;;;;;;1.55;0.95;;;10.80;99.90;;;;;;5076760;28;20050;-63
2022/07/28 01:15:15;;;;;;;2.58;0.95;;;10.80;99.90;;;;;;5079469;28;20048;-64
2022/07/28 01:18:07;;;;;;;1.83;1.10;;;10.70;99.90;;;;;;5071571;28;20079;-65
2022/07/28 01:20:38;;;;;;;1.35;1.20;;;10.70;99.90;;;;;;5067553;28;20509;-64
2022/07/28 01:23:10;;;;;;;1.73;1.10;;;10.70;99.90;;;;;;5061991;28;20111;-66
2022/07/28 01:25:54;;;;;;;2.95;0.93;;;10.70;99.90;;;;;;5088935;28;20118;-65
2022/07/28 01:28:58;;;;;;;1.67;0.90;;;10.70;99.90;;;;;;5075387;28;20382;-64
2022/07/28 01:31:26;;;;;;;2.55;1.00;;;10.70;99.90;;;;;;5084842;28;20486;-65
2022/07/28 01:34:04;;;;;;;1.60;0.90;;;10.70;99.90;;;;;;5070828;28;20032;-65
2022/07/28 01:36:41;;;;;;;1.98;1.23;;;10.70;99.90;;;;;;5088984;28;20406;-63
2022/07/28 01:39:08;;;;;;;1.73;0.90;;;10.60;99.90;;;;;;5067838;28;20032;-65
2022/07/28 01:41:36;;;;;;;1.48;1.13;;;10.60;99.90;;;;;;5055744;28;20047;-64
2022/07/28 01:44:10;;;;;;;1.50;0.90;;;10.60;99.90;;;;;;5069320;28;20414;-64
2022/07/28 01:46:37;;;;;;;1.77;1.00;;;10.60;99.90;;;;;;5067199;28;20109;-64
2022/07/28 01:49:03;;;;;;;1.60;1.20;;;10.60;99.90;;;;;;5084511;28;20435;-64
2022/07/28 01:51:29;;;;;;;1.33;1.13;;;10.50;99.90;;;;;;5070622;28;20490;-64
2022/07/28 01:53:58;;;;;;;2.80;1.00;;;10.50;99.90;;;;;;5072252;28;20054;-65
2022/07/28 01:56:28;;;;;;;4.18;1.13;;;10.50;99.90;;;;;;5069985;28;20040;-64
2022/07/28 01:58:57;;;;;;;3.05;1.00;;;10.40;99.90;;;;;;5086619;28;20043;-64
2022/07/28 02:01:24;;;;;;;2.80;1.00;;;10.30;99.90;;;;;;5078781;28;20040;-63
2022/07/28 02:03:50;;;;;;;1.60;1.13;;;10.30;99.90;;;;;;5068540;28;20437;-64
2022/07/28 02:06:18;;;;;;;1.95;1.20;;;10.30;99.90;;;;;;5067475;28;20040;-64
2022/07/28 02:08:46;;;;;;;2.35;1.10;;;10.20;99.90;;;;;;5089034;28;20028;-64
2022/07/28 02:13:57;;;;;;;2.10;0.95;;;10.20;99.90;;;;;;5067160;28;20036;-64
2022/07/28 02:16:25;;;;;;;2.75;1.10;;;10.10;99.90;;;;;;5070588;28;20545;-64
2022/07/28 02:18:54;;;;;;;1.73;1.10;;;10.10;99.90;;;;;;5071167;28;20558;-64
2022/07/28 02:21:23;;;;;;;2.50;1.10;;;10.10;99.90;;;;;;5068625;28;20051;-64
2022/07/28 02:23:50;;;;;;;3.58;1.20;;;10.00;99.90;;;;;;5067624;28;20064;-64
2022/07/28 02:26:20;;;;;;;1.70;0.98;;;10.00;99.90;;;;;;5065398;28;20096;-64
2022/07/28 02:28:51;;;;;;;4.90;1.40;;;10.00;99.90;;;;;;5070565;28;20389;-64
2022/07/28 02:31:24;;;;;;;1.48;0.98;;;10.00;99.90;;;;;;5063939;28;20032;-64
2022/07/28 02:33:53;;;;;;;2.53;1.00;;;10.00;99.90;;;;;;5069443;28;20058;-63
2022/07/28 02:36:28;;;;;;;2.38;1.10;;;10.00;99.90;;;;;;5069794;28;20052;-64
2022/07/28 02:38:57;;;;;;;2.55;1.10;;;10.00;99.90;;;;;;5051203;28;20048;-64
2022/07/28 02:41:28;;;;;;;1.52;1.02;;;10.00;99.90;;;;;;5069783;28;20504;-63
2022/07/28 02:43:59;;;;;;;1.55;1.00;;;10.00;99.90;;;;;;5053194;28;20063;-64
2022/07/28 02:46:29;;;;;;;3.60;1.38;;;10.00;99.90;;;;;;5070510;28;20070;-65
2022/07/28 02:49:01;;;;;;;3.28;0.98;;;10.00;99.90;;;;;;5070317;28;20169;-64
2022/07/28 02:51:29;;;;;;;2.63;1.27;;;10.00;99.90;;;;;;5069982;28;20044;-64
2022/07/28 02:53:55;;;;;;;2.53;1.13;;;10.00;99.90;;;;;;5070025;28;20040;-65
2022/07/28 02:56:22;;;;;;;1.85;1.40;;;9.90;99.90;;;;;;5065584;28;20051;-64
2022/07/28 02:58:49;;;;;;;2.33;1.85;;;9.90;99.90;;;;;;5067719;28;20119;-64
2022/07/28 03:01:18;;;;;;;2.70;1.25;;;9.90;99.90;;;;;;5089218;28;20390;-65
2022/07/28 03:03:45;;;;;;;1.67;1.13;;;9.90;99.90;;;;;;5066640;28;20398;-65
2022/07/28 03:06:11;;;;;;;1.65;1.08;;;9.90;99.90;;;;;;5066578;28;20060;-64
2022/07/28 03:08:37;;;;;;;3.20;1.00;;;9.80;99.90;;;;;;5088055;28;20055;-63
2022/07/28 03:11:12;;;;;;;1.95;1.00;;;9.90;99.90;;;;;;5076842;28;20086;-64
2022/07/28 03:13:38;;;;;;;2.55;1.05;;;9.80;99.90;;;;;;5067599;28;20097;-64
2022/07/28 03:16:05;;;;;;;1.10;0.95;;;9.80;99.90;;;;;;5069879;28;20484;-64
2022/07/28 03:18:30;;;;;;;2.90;1.88;;;9.80;99.90;;;;;;5052264;28;20498;-64
2022/07/28 03:20:57;;;;;;;1.55;0.98;;;9.70;99.90;;;;;;5066941;28;20044;-63
2022/07/28 03:23:45;;;;;;;3.20;1.42;;;9.70;99.90;;;;;;5069757;28;20044;-64
2022/07/28 03:26:34;;;;;;;1.60;1.02;;;9.70;99.90;;;;;;5069558;28;20052;-64
2022/07/28 03:29:01;;;;;;;1.20;1.10;;;9.70;99.90;;;;;;5067842;28;20048;-64
2022/07/28 03:31:27;;;;;;;1.95;1.20;;;9.70;99.90;;;;;;5068080;28;20048;-64
2022/07/28 03:33:53;;;;;;;2.17;1.02;;;9.70;99.90;;;;;;5071991;28;20044;-64
2022/07/28 03:36:28;;;;;;;1.27;0.95;;;9.80;99.90;;;;;;5092843;28;20042;-65
2022/07/28 03:39:00;;;;;;;2.15;1.05;;;9.80;99.90;;;;;;5071362;28;20062;-65
2022/07/28 03:41:28;;;;;;;1.08;0.98;;;9.80;99.90;;;;;;5070365;28;20044;-65
2022/07/28 03:43:54;;;;;;;1.98;1.10;;;9.80;99.90;;;;;;5086709;28;20032;-64
2022/07/28 03:46:20;;;;;;;2.20;1.00;;;9.80;99.90;;;;;;5072736;28;20086;-63
2022/07/28 03:48:46;;;;;;;2.22;1.10;;;9.90;99.90;;;;;;5073130;28;20633;-65
2022/07/28 03:51:12;;;;;;;1.95;1.20;;;9.90;99.90;;;;;;5072177;28;20085;-64
2022/07/28 03:53:39;;;;;;;2.30;1.20;;;9.90;99.90;;;;;;5094923;28;20057;-64
2022/07/28 03:56:05;;;;;;;4.38;1.20;;;10.00;99.90;;;;;;5091841;28;20042;-64
2022/07/28 03:58:30;;;;;;;2.80;1.20;;;10.00;99.90;;;;;;5071180;28;20041;-64
2022/07/28 04:00:57;;;;;;;1.90;0.88;;;10.00;99.90;;;;;;5072537;28;20064;-66
2022/07/28 04:03:23;;;;;;;4.25;1.20;;;10.00;99.90;;;;;;5069539;28;20072;-64
2022/07/28 04:05:48;;;;;;;1.77;1.10;;;10.00;99.90;;;;;;5055809;28;20079;-64
2022/07/28 04:08:14;;;;;;;2.63;1.02;;;10.00;99.90;;;;;;5084961;28;20554;-64
2022/07/28 04:10:40;;;;;;;3.50;1.20;;;10.00;99.90;;;;;;5074045;28;20391;-64
2022/07/28 04:13:06;;;;;;;7.40;2.20;;;10.00;99.90;;;;;;5096248;28;20028;-64
2022/07/28 04:15:32;;;;;;;2.55;1.20;;;10.00;99.90;;;;;;5070270;28;20043;-64
2022/07/28 04:17:59;;;;;;;2.17;1.10;;;10.00;99.90;;;;;;5071481;28;20039;-63
2022/07/28 04:20:26;;;;;;;1.23;1.00;;;10.00;99.90;;;;;;5071639;28;20089;-64
2022/07/28 04:22:53;;;;;;;2.10;0.90;;;10.00;99.90;;;;;;5071454;28;20118;-64
2022/07/28 04:25:22;;;;;;;3.05;1.10;;;9.90;99.90;;;;;;5050772;28;20044;-64
2022/07/28 04:27:47;;;;;;;2.55;1.48;;;9.90;99.90;;;;;;5065843;28;20055;-64
2022/07/28 04:30:17;;;;;;;2.10;1.10;;;9.90;99.90;;;;;;5063600;28;20036;-64
2022/07/28 04:32:44;;;;;;;2.78;1.33;;;9.90;99.90;;;;;;5062138;28;20113;-64
2022/07/28 04:35:10;;;;;;;3.50;1.30;;;9.90;99.90;;;;;;5064198;28;20130;-64
2022/07/28 04:37:37;;;;;;;3.58;1.10;;;9.80;99.90;;;;;;5066312;28;20391;-65
2022/07/28 04:40:04;;;;;;;1.38;1.00;;;9.80;99.90;;;;;;5090926;28;20039;-65
2022/07/28 04:42:30;;;;;;;3.08;1.27;;;9.80;99.90;;;;;;5076540;28;20074;-65
2022/07/28 04:44:55;;;;;;;2.03;1.40;;;9.80;99.90;;;;;;5084064;28;20075;-65
2022/07/28 04:47:23;;;;;;;2.95;1.30;;;9.80;99.90;;;;;;5088828;28;20081;-64
2022/07/28 04:49:49;;;;;;;4.22;1.38;;;9.80;99.90;;;;;;5072205;28;20047;-65
2022/07/28 04:52:14;;;;;;;2.53;1.30;;;9.80;99.90;;;;;;5071804;28;20123;-65
2022/07/28 04:54:40;;;;;;;2.00;1.00;;;9.90;99.90;;;;;;5068005;28;21218;-64
2022/07/28 04:57:06;;;;;;;2.47;1.42;;;9.90;99.90;;;;;;5075188;28;20051;-63
2022/07/28 04:59:32;;;;;;;1.98;1.10;;;10.00;99.90;;;;;;5067147;28;20063;-64
2022/07/28 05:01:58;;;;;;;4.75;1.20;;;10.10;99.90;;;;;;5091804;28;20139;-64
2022/07/28 05:04:24;;;;;;;5.85;2.28;;;10.20;99.90;;;;;;5066276;28;20094;-64
2022/07/28 05:06:50;;;;;;;4.13;1.95;;;10.30;99.90;;;;;;5051568;28;20069;-63
2022/07/28 05:09:16;;;;;;;3.00;1.30;;;10.40;99.90;;;;;;5053129;28;20056;-65
2022/07/28 05:11:42;;;;;;;1.92;1.48;;;10.50;99.90;;;;;;5066586;28;20123;-64
2022/07/28 05:14:08;;;;;;;2.08;1.23;;;10.60;99.90;;;;;;5054666;28;20051;-64
2022/07/28 05:16:33;;;;;;;5.25;1.17;;;10.80;99.90;;;;;;5057804;28;20071;-64
2022/07/28 05:18:59;;;;;;;2.67;1.13;;;10.90;99.90;;;;;;5076845;28;20058;-65
2022/07/28 05:21:24;;;;;;;3.58;1.70;;;11.00;99.90;;;;;;5073356;28;20048;-65
2022/07/28 05:23:50;;;;;;;2.22;1.27;;;11.10;99.90;;;;;;5078598;28;20438;-65
2022/07/28 05:26:16;;;;;;;2.45;1.50;;;11.30;99.90;;;;;;5062179;28;20046;-64
2022/07/28 05:28:42;;;;;;;2.63;1.30;;;11.50;99.90;;;;;;5064270;28;20038;-64
2022/07/28 05:31:07;;;;;;;3.17;1.50;;;11.70;99.90;;;;;;5064277;28;20101;-63
2022/07/28 05:33:36;;;;;;;2.50;1.45;;;12.00;99.90;;;;;;5045778;28;20046;-65
2022/07/28 05:36:02;;;;;;;2.50;1.15;;;12.20;99.90;;;;;;5072488;28;20036;-64
2022/07/28 05:38:29;;;;;;;2.65;1.13;;;12.40;99.90;;;;;;5070024;28;20063;-64
2022/07/28 05:40:55;;;;;;;2.85;1.38;;;12.70;99.90;;;;;;5070408;28;20126;-65
2022/07/28 05:43:21;;;;;;;2.67;1.30;;;13.00;99.90;;;;;;5072064;28;20562;-64
2022/07/28 05:45:47;;;;;;;3.55;1.30;;;13.20;99.90;;;;;;5087572;28;20046;-63
2022/07/28 05:48:15;;;;;;;5.40;1.38;;;13.30;99.90;;;;;;5053968;28;20428;-64
2022/07/28 05:50:41;;;;;;;3.70;1.48;;;13.60;99.90;;;;;;5069894;28;20105;-64
2022/07/28 05:53:06;;;;;;;2.60;1.00;;;13.90;99.90;;;;;;5071620;28;20048;-65
2022/07/28 05:55:32;;;;;;;4.43;1.17;;;14.20;99.90;;;;;;5076540;28;20048;-65
2022/07/28 05:57:59;;;;;;;3.83;1.10;;;14.50;99.90;;;;;;5085608;28;20040;-65
2022/07/28 06:00:25;;;;;;;2.78;1.02;;;14.80;99.90;;;;;;5070391;28;20101;-65
2022/07/28 06:02:51;;;;;;;1.85;0.77;;;15.00;99.90;;;;;;5056374;28;20043;-64
2022/07/28 06:05:19;;;;;;;5.68;0.98;;;15.10;99.90;;;;;;5073126;28;20040;-65
2022/07/28 06:07:46;;;;;;;2.40;1.00;;;15.10;99.90;;;;;;5091165;28;20077;-65
2022/07/28 06:10:14;;;;;;;2.13;1.00;;;15.10;99.90;;;;;;5073009;28;20040;-64
2022/07/28 06:12:42;;;;;;;3.03;0.80;;;15.10;99.90;;;;;;5091129;28;20405;-65
2022/07/28 06:15:19;;;;;;;3.35;1.45;;;15.10;99.90;;;;;;5090802;28;20442;-63
2022/07/28 06:17:45;;;;;;;2.50;1.02;;;15.10;99.90;;;;;;5072826;28;20051;-64
2022/07/28 06:20:11;;;;;;;3.20;0.88;;;15.10;99.90;;;;;;5090852;28;20122;-64
2022/07/28 06:22:45;;;;;;;2.40;0.70;;;15.20;99.90;;;;;;5072972;28;20040;-65
2022/07/28 06:25:19;;;;;;;4.32;1.00;;;15.20;99.90;;;;;;5090478;28;20036;-65
2022/07/28 06:27:45;;;;;;;9.15;1.42;;;15.20;99.90;;;;;;5073211;28;20052;-64
2022/07/28 06:30:11;;;;;;;3.78;1.05;;;15.20;99.90;;;;;;5055659;28;20044;-63
2022/07/28 06:32:37;;;;;;;2.05;1.13;;;15.20;99.90;;;;;;5072706;28;20032;-64
2022/07/28 06:35:03;;;;;;;3.00;1.10;;;15.20;99.90;;;;;;5072670;28;20523;-65
2022/07/28 06:37:29;;;;;;;5.20;1.10;;;15.20;99.90;;;;;;5072892;28;20043;-64
2022/07/28 06:39:55;;;;;;;6.75;1.30;;;15.30;99.90;;;;;;5072200;28;20047;-64
2022/07/28 06:42:20;;;;;;;4.60;1.10;;;15.30;99.90;;;;;;5090740;28;20474;-65
2022/07/28 06:44:46;;;;;;;5.22;1.30;;;15.30;99.90;;;;;;5072474;28;20040;-64
2022/07/28 06:47:11;;;;;;;3.85;1.20;;;15.30;99.90;;;;;;5090625;28;20031;-64
2022/07/28 06:49:37;;;;;;;3.20;1.23;;;15.30;99.90;;;;;;5072594;28;20055;-65
2022/07/28 06:52:03;;;;;;;4.75;1.10;;;15.40;99.90;;;;;;5090548;28;20105;-64
2022/07/28 06:54:28;;;;;;;5.03;1.10;;;15.40;99.90;;;;;;5072522;28;20052;-65
2022/07/28 06:56:54;;;;;;;4.15;1.08;;;15.40;99.90;;;;;;5073822;28;20044;-66
2022/07/28 06:59:20;;;;;;;6.20;1.25;;;15.50;99.90;;;;;;5094422;28;20071;-64
2022/07/28 07:01:45;;;;;;;3.13;1.00;;;15.60;99.90;;;;;;5076509;28;20393;-64
2022/07/28 07:04:11;;;;;;;3.30;1.00;;;15.60;99.90;;;;;;5076159;28;20044;-64
2022/07/28 07:06:37;;;;;;;5.57;1.20;;;15.70;99.90;;;;;;5076373;28;20067;-65
2022/07/28 07:09:03;;;;;;;3.47;1.20;;;15.80;99.90;;;;;;5076249;28;20051;-65
2022/07/28 07:11:29;;;;;;;3.60;1.30;;;15.90;99.90;;;;;;5076489;28;20040;-64
2022/07/28 07:13:54;;;;;;;6.88;1.23;;;16.10;99.90;;;;;;5094362;28;20040;-65
2022/07/28 07:16:20;;;;;;;5.57;1.30;;;16.40;99.90;;;;;;5076003;28;20040;-65
2022/07/28 07:18:47;;;;;;;3.05;1.20;;;16.50;99.90;;;;;;5076498;28;20082;-64
2022/07/28 07:21:13;;;;;;;2.10;1.05;;;16.60;99.90;;;;;;5096026;28;20094;-65
2022/07/28 07:23:39;;;;;;;4.78;1.20;;;16.70;99.90;;;;;;5096393;28;20481;-66
2022/07/28 07:26:04;;;;;;;4.70;1.40;;;16.90;99.90;;;;;;5114281;28;20073;-65
2022/07/28 07:28:30;;;;;;;3.85;0.98;;;17.10;99.90;;;;;;5096405;28;20099;-64
2022/07/28 07:30:56;;;;;;;2.75;0.90;;;17.40;99.90;;;;;;5096525;28;20047;-64
2022/07/28 07:33:22;;;;;;;4.20;0.93;;;17.40;99.90;;;;;;5114352;28;20042;-64
2022/07/28 07:35:47;;;;;;;3.58;1.30;;;17.50;99.90;;;;;;5114574;28;20067;-63
2022/07/28 07:38:13;;;;;;;4.32;0.90;;;17.50;99.90;;;;;;5114144;28;20078;-64
2022/07/28 07:40:39;;;;;;;3.78;0.80;;;17.60;99.90;;;;;;5114333;28;20145;-65
2022/07/28 07:43:05;;;;;;;4.00;0.93;;;17.70;99.90;;;;;;5095953;28;20039;-65
2022/07/28 07:45:31;;;;;;;1.27;0.70;;;17.80;99.90;;;;;;5114441;28;20437;-63
2022/07/28 07:47:56;;;;;;;1.67;0.70;;;17.90;99.90;;;;;;5114373;28;20071;-65
2022/07/28 07:50:22;;;;;;;3.20;0.80;;;18.10;99.90;;;;;;5095636;28;20096;-65
2022/07/28 07:52:50;;;;;;;1.63;0.60;;;18.20;99.90;;;;;;5095871;28;20119;-64
2022/07/28 07:55:16;;;;;;;4.95;1.00;;;18.40;99.90;;;;;;5095345;28;20463;-65
2022/07/28 07:57:43;;;;;;;6.03;1.02;;;18.50;99.90;;;;;;5113939;28;20116;-65
2022/07/28 08:00:09;;;;;;;3.15;0.88;;;18.60;99.90;;;;;;5114388;28;20089;-64
2022/07/28 08:02:39;;;;;;;2.63;0.75;;;18.80;99.90;;;;;;5096018;28;20504;-64
2022/07/28 08:05:05;;;;;;;3.47;0.60;;;18.90;99.90;;;;;;5095841;28;20419;-64
2022/07/28 08:07:30;;;;;;;2.88;0.77;;;18.90;99.90;;;;;;5095513;28;20097;-64
2022/07/28 08:09:56;;;;;;;4.10;0.93;;;19.10;99.90;;;;;;5094712;28;20044;-65
2022/07/28 08:12:22;;;;;;;2.45;0.50;;;19.30;99.90;;;;;;5095092;28;20400;-64
2022/07/28 08:14:47;;;;;;;2.03;0.65;;;19.20;99.90;;;;;;5095813;28;20134;-64
2022/07/28 08:17:13;;;;;;;3.47;0.90;;;19.10;99.90;;;;;;5095360;28;20088;-65
2022/07/28 08:19:38;;;;;;;3.42;0.77;;;19.10;99.90;;;;;;5113805;28;20035;-64
2022/07/28 08:22:04;;;;;;;1.83;0.60;;;19.20;99.90;;;;;;5094973;28;20086;-65
2022/07/28 08:24:30;;;;;;;5.68;0.77;;;19.30;99.90;;;;;;5102759;28;20913;-64
2022/07/28 08:26:55;;;;;;;2.58;0.70;;;19.50;99.90;;;;;;5092976;28;20115;-64
2022/07/28 08:29:21;;;;;;;2.17;0.73;;;19.40;99.40;;;;;;5092767;28;20032;-65
2022/07/28 08:31:46;;;;;;;2.03;0.70;;;19.30;99.10;;;;;;5075212;28;20054;-64
2022/07/28 08:34:12;;;;;;;4.18;0.70;;;19.30;99.10;;;;;;5075050;28;20043;-64
2022/07/28 08:36:38;;;;;;;3.38;0.70;;;19.30;99.40;;;;;;5074801;28;20059;-65
2022/07/28 08:39:04;;;;;;;2.17;0.60;;;19.40;99.30;;;;;;5074797;28;20634;-65
2022/07/28 08:41:39;;;;;;;2.30;0.55;;;19.40;99.30;;;;;;5074537;28;20082;-65
2022/07/28 08:44:09;;;;;;;2.40;0.65;;;19.20;98.90;;;;;;5092853;28;20048;-65
2022/07/28 08:46:36;;;;;;;3.17;0.70;;;19.10;99.50;;;;;;5074324;28;20387;-64
2022/07/28 08:49:06;;;;;;;2.75;0.60;;;19.10;99.50;;;;;;5074513;28;20085;-65
2022/07/28 08:51:33;;;;;;;6.53;0.95;;;18.90;98.90;;;;;;5074531;28;20044;-64
2022/07/28 08:54:00;;;;;;;2.60;0.65;;;18.80;99.30;;;;;;5074316;28;20111;-64
2022/07/28 08:56:26;;;;;;;2.17;0.68;;;18.60;99.30;;;;;;5074227;28;20036;-64
2022/07/28 08:58:53;;;;;;;3.05;0.88;;;18.60;99.50;;;;;;5074492;28;20538;-65
2022/07/28 09:01:21;;;;;;;3.30;0.90;;;18.60;99.40;;;;;;5092480;28;20077;-64
2022/07/28 09:03:47;;;;;;;3.13;1.00;;;18.70;99.70;;;;;;5092099;28;20115;-65
2022/07/28 09:06:13;;;;;;;3.85;1.00;;;18.80;99.50;;;;;;5092399;28;20139;-64
2022/07/28 09:08:38;;;;;;;5.68;1.17;;;18.90;99.30;;;;;;5074097;28;20138;-65
2022/07/28 09:11:06;;;;;;;6.82;0.85;;;19.00;99.30;;;;;;5092367;28;20115;-63
2022/07/28 09:13:34;;;;;;;4.05;1.15;;;19.10;99.40;;;;;;5092068;28;20036;-64
2022/07/28 09:15:59;;;;;;;1.92;0.65;;;19.40;99.50;;;;;;5092220;28;20089;-64
2022/07/28 09:18:25;;;;;;;2.30;0.88;;;19.40;99.20;;;;;;5074242;28;20036;-64
2022/07/28 09:20:51;;;;;;;2.22;0.70;;;19.40;98.80;;;;;;5073886;28;20545;-65
2022/07/28 09:23:17;;;;;;;1.58;0.60;;;19.50;98.70;;;;;;5073776;28;20063;-66
2022/07/28 09:25:43;;;;;;;7.07;2.35;;;19.60;98.80;;;;;;5073640;28;20064;-64
2022/07/28 09:28:17;;;;;;;3.53;0.80;;;19.60;98.90;;;;;;5087435;28;20134;-65
2022/07/28 09:30:48;;;;;;;4.15;1.00;;;19.70;98.60;;;;;;5094059;28;20052;-66
2022/07/28 09:33:15;;;;;;;3.07;0.83;;;19.50;98.60;;;;;;5112405;28;20062;-65
2022/07/28 09:35:43;;;;;;;4.22;0.82;;;19.40;98.10;;;;;;5093491;28;20690;-64
2022/07/28 09:38:09;;;;;;;3.00;0.60;;;19.20;98.00;;;;;;5094053;28;20100;-65
2022/07/28 09:40:34;;;;;;;1.52;0.68;;;19.10;97.80;;;;;;5111821;28;20051;-64
2022/07/28 09:43:00;;;;;;;3.47;0.73;;;19.00;97.60;;;;;;5093691;28;20034;-64
2022/07/28 09:45:27;;;;;;;3.63;0.63;;;18.90;97.90;;;;;;5111892;28;20046;-65
2022/07/28 09:48:09;;;;;;;1.17;0.52;;;19.00;97.70;;;;;;5093416;28;20122;-65
2022/07/28 09:50:35;;;;;;;1.20;0.43;;;19.10;97.30;;;;;;5076970;28;20039;-64
2022/07/28 09:53:23;;;;;;;1.20;0.60;;;19.00;96.90;;;;;;5093191;28;20637;-65
2022/07/28 09:55:59;;;;;;;2.83;0.85;;;19.10;97.20;;;;;;5111524;28;20396;-66
2022/07/28 09:58:26;;;;;;;1.92;0.68;;;19.30;97.70;;;;;;5093480;28;20501;-64
2022/07/28 10:01:09;;;;;;;1.90;0.60;;;19.40;97.10;;;;;;5093237;28;20047;-65
2022/07/28 10:03:36;;;;;;;3.10;0.80;;;19.40;96.70;;;;;;5111694;28;20100;-65
2022/07/28 10:06:10;;;;;;;1.75;0.60;;;19.30;96.90;;;;;;5092996;28;20426;-65
2022/07/28 10:08:46;;;;;;;5.35;0.80;;;19.20;96.90;;;;;;5093315;28;20523;-64
2022/07/28 10:11:16;;;;;;;0.93;0.50;;;19.10;96.80;;;;;;5111518;28;20071;-64
2022/07/28 10:13:51;;;;;;;3.45;0.70;;;19.10;97.40;;;;;;5093075;28;20078;-65
2022/07/28 10:16:17;;;;;;;3.30;0.57;;;19.00;97.90;;;;;;5104620;28;20126;-65
2022/07/28 10:18:43;;;;;;;3.03;1.08;;;19.00;97.90;;;;;;5093276;28;20489;-64
2022/07/28 10:21:13;;;;;;;1.70;0.73;;;19.00;98.10;;;;;;5076168;28;20083;-64
2022/07/28 10:23:44;;;;;;;2.70;0.80;;;19.20;98.30;;;;;;5076230;28;20047;-65
2022/07/28 10:26:10;;;;;;;1.52;0.80;;;19.70;97.90;;;;;;5111085;28;20052;-66
2022/07/28 10:28:38;;;;;;;3.25;0.93;;;20.10;97.90;;;;;;5092894;28;20108;-64
2022/07/28 10:31:08;;;;;;;2.95;0.80;;;20.50;97.70;;;;;;5092319;28;20096;-65
2022/07/28 10:33:37;;;;;;;1.73;0.70;;;21.00;98.00;;;;;;5093081;28;20451;-65
2022/07/28 10:36:03;;;;;;;2.47;0.90;;;21.40;97.00;;;;;;5092548;28;20092;-65
2022/07/28 10:38:33;;;;;;;2.63;0.80;;;21.70;96.40;;;;;;5078863;28;20469;-66
2022/07/28 10:41:02;;;;;;;3.70;0.80;;;21.90;95.80;;;;;;5072527;28;20044;-64
2022/07/28 10:43:30;;;;;;;1.33;0.70;;;22.00;95.80;;;;;;5090849;28;20468;-64
2022/07/28 10:46:00;;;;;;;3.03;0.60;;;22.10;95.30;;;;;;5072261;28;20126;-64
2022/07/28 10:48:26;;;;;;;1.48;0.60;;;22.20;95.00;;;;;;5072599;28;20032;-64
2022/07/28 10:50:53;;;;;;;3.70;1.00;;;22.20;94.80;;;;;;5072571;28;20066;-64
2022/07/28 10:53:39;;;;;;;2.83;0.90;;;22.40;94.30;;;;;;5072703;28;20032;-64
2022/07/28 10:56:13;;;;;;;5.95;1.30;;;22.30;93.90;;;;;;5072225;28;20440;-64
2022/07/28 10:58:55;;;;;;;4.53;1.00;;;22.40;94.60;;;;;;5090699;28;20039;-65
2022/07/28 11:01:38;;;;;;;3.55;0.70;;;22.30;94.70;;;;;;5090587;28;20071;-64
2022/07/28 11:04:08;;;;;;;3.50;0.70;;;21.90;94.40;;;;;;5072105;28;20082;-65
2022/07/28 11:06:44;;;;;;;2.90;0.80;;;21.80;94.40;;;;;;5090486;28;20044;-64
2022/07/28 11:09:16;;;;;;;3.08;1.10;;;21.60;94.60;;;;;;5072160;28;20044;-64
2022/07/28 11:11:53;;;;;;;3.15;0.65;;;21.70;94.90;;;;;;5072279;28;20044;-66
2022/07/28 11:14:22;;;;;;;2.60;0.55;;;21.60;94.50;;;;;;5055818;28;20485;-65
2022/07/28 11:17:17;;;;;;;2.42;0.60;;;21.60;94.60;;;;;;5072750;28;20390;-65
2022/07/28 11:19:43;;;;;;;1.85;0.60;;;21.50;93.80;;;;;;5072578;28;20404;-65
2022/07/28 11:22:20;;;;;;;3.03;0.80;;;21.50;94.00;;;;;;5071990;28;20044;-64
2022/07/28 11:27:39;;;;;;;2.17;0.75;;;21.40;93.30;;;;;;5068694;28;20073;-64
2022/07/28 11:30:05;;;;;;;1.95;0.70;;;21.20;93.80;;;;;;5068647;28;20050;-64
2022/07/28 11:32:49;;;;;;;4.00;0.93;;;21.20;94.10;;;;;;5069068;28;20037;-66
2022/07/28 11:35:16;;;;;;;2.67;0.73;;;21.30;94.00;;;;;;5068714;28;20056;-64
2022/07/28 11:38:14;;;;;;;2.92;0.80;;;21.30;93.90;;;;;;5070253;28;20064;-64
2022/07/28 11:40:40;;;;;;;1.75;0.70;;;21.10;93.30;;;;;;4991642;28;20104;-64
2022/07/28 11:43:25;;;;;;;2.47;0.40;;;21.00;93.20;;;;;;4991775;28;20532;-64
2022/07/28 11:46:00;;;;;;;1.52;0.70;;;20.90;93.80;;;;;;4995522;28;20582;-64
2022/07/28 11:48:29;;;;;;;6.65;0.70;;;21.00;94.10;;;;;;4995097;28;20038;-64
2022/07/28 11:51:04;;;;;;;2.67;0.60;;;21.20;93.60;;;;;;5011551;28;20614;-65
2022/07/28 11:53:39;;;;;;;3.63;0.70;;;21.20;93.00;;;;;;4995018;28;20128;-64
2022/07/28 11:56:12;;;;;;;2.40;0.65;;;21.30;92.90;;;;;;4994933;28;20061;-65
2022/07/28 11:58:39;;;;;;;1.42;0.63;;;21.50;93.40;;;;;;4995124;28;20089;-65
2022/07/28 12:01:16;;;;;;;1.70;0.70;;;21.70;93.40;;;;;;4995061;28;20053;-65
2022/07/28 12:03:46;;;;;;;3.17;0.75;;;21.80;93.80;;;;;;4994821;28;20050;-64
2022/07/28 12:06:13;;;;;;;2.35;0.75;;;21.80;93.70;;;;;;4994865;28;20046;-64
2022/07/28 12:08:56;;;;;;;5.30;0.77;;;21.70;93.40;;;;;;5011223;28;20041;-66
2022/07/28 12:11:23;;;;;;;1.23;0.47;;;21.60;93.30;;;;;;4996356;28;20042;-64
2022/07/28 12:14:02;;;;;;;1.77;0.60;;;21.60;93.10;;;;;;5031018;28;20095;-64
2022/07/28 12:16:29;;;;;;;1.13;0.60;;;21.60;92.60;;;;;;5038539;28;20055;-64
2022/07/28 12:18:55;;;;;;;1.30;0.70;;;21.70;92.80;;;;;;5071741;28;20062;-64
2022/07/28 12:21:43;;;;;;;1.85;0.75;;;21.80;92.50;;;;;;5071517;28;20036;-64
2022/07/28 12:24:14;;;;;;;1.90;0.65;;;21.80;91.50;;;;;;5074197;28;20052;-65
2022/07/28 12:26:41;;;;;;;1.48;0.63;;;21.80;91.90;;;;;;5095082;28;20069;-64
2022/07/28 12:29:10;;;;;;;1.70;0.68;;;22.00;92.40;;;;;;5095107;28;20032;-66
2022/07/28 12:31:36;;;;;;;1.30;0.57;;;22.20;92.70;;;;;;5094870;28;20167;-66
2022/07/28 12:34:08;;;;;;;2.72;0.65;;;22.10;92.20;;;;;;5113408;28;20405;-64
2022/07/28 12:36:36;;;;;;;0.98;0.50;;;22.00;92.10;;;;;;5094702;28;20040;-63
2022/07/28 12:39:07;;;;;;;3.22;0.63;;;22.10;92.40;;;;;;5095032;28;20588;-68
2022/07/28 12:41:34;;;;;;;2.33;0.70;;;22.20;92.20;;;;;;5113006;28;20447;-64
2022/07/28 12:44:01;;;;;;;2.00;0.52;;;22.30;91.40;;;;;;5095043;28;20090;-64
2022/07/28 12:46:29;;;;;;;2.58;0.68;;;22.30;91.10;;;;;;5094677;28;20051;-65
2022/07/28 12:48:56;;;;;;;2.35;0.77;;;22.30;91.80;;;;;;5095294;28;20122;-65
2022/07/28 12:51:41;;;;;;;3.75;0.63;;;22.40;91.70;;;;;;5094555;28;20043;-66
2022/07/28 12:54:09;;;;;;;2.42;0.65;;;22.50;91.10;;;;;;5094072;28;20040;-64
2022/07/28 12:56:51;;;;;;;3.40;0.70;;;22.50;91.10;;;;;;5094831;28;20338;-66
2022/07/28 12:59:18;;;;;;;1.85;0.73;;;22.50;90.90;;;;;;5094809;28;20384;-65
2022/07/28 13:01:52;;;;;;;1.73;0.63;;;22.50;90.90;;;;;;5112598;28;20125;-65